createdAt,value
2019-05-09T00:02:13.813Z,96757.56
2019-05-09T00:04:44.480Z,96767.80
2019-05-09T00:07:14.733Z,96766.28
2019-05-09T00:09:44.987Z,96758.75
2019-05-09T00:12:15.178Z,96767.41
2019-05-09T00:14:46.607Z,96761.07
2019-05-09T00:17:16.867Z,96762.50
2019-05-09T00:19:47.004Z,96759.22
2019-05-09T00:22:17.141Z,96757.33
2019-05-09T00:24:47.380Z,96755.98
2019-05-09T00:27:17.501Z,96763.19
2019-05-09T00:29:48.862Z,96760.25
2019-05-09T00:32:34.050Z,96760.61
2019-05-09T00:35:44.245Z,96758.17
2019-05-09T00:38:14.473Z,96761.48
2019-05-09T00:40:54.989Z,96762.89
2019-05-09T00:43:17.371Z,96752.94
2019-05-09T00:46:06.438Z,96748.89
2019-05-09T00:48:56.260Z,96741.14
2019-05-09T00:51:26.604Z,96745.80
2019-05-09T00:53:57.908Z,96751.30
2019-05-09T01:04:55.160Z,96735.72
2019-05-09T01:07:25.562Z,96730.70
2019-05-09T01:09:55.698Z,96726.36
2019-05-09T01:12:25.972Z,96725.06
2019-05-09T01:14:56.106Z,96722.14
2019-05-09T01:17:26.337Z,96718.58
2019-05-09T01:19:57.259Z,96721.02
2019-05-09T01:22:27.504Z,96723.92
2019-05-09T01:24:57.833Z,96721.27
2019-05-09T01:27:28.016Z,96731.09
2019-05-09T01:29:58.388Z,96718.83
2019-05-09T01:32:43.357Z,96733.56
2019-05-09T01:35:13.542Z,96733.16
2019-05-09T01:37:43.760Z,96728.36
2019-05-09T01:40:15.442Z,96729.31
2019-05-09T01:42:45.558Z,96733.64
2019-05-09T01:45:15.998Z,96732.69
2019-05-09T01:47:46.318Z,96729.52
2019-05-09T01:50:16.531Z,96737.45
2019-05-09T01:52:50.380Z,96732.07
2019-05-09T01:55:23.481Z,96727.85
2019-05-09T01:57:53.924Z,96722.97
2019-05-09T02:00:24.258Z,96721.38
2019-05-09T02:02:54.364Z,96714.89
2019-05-09T02:05:24.573Z,96723.19
2019-05-09T02:07:54.588Z,96709.72
2019-05-09T02:10:24.782Z,96715.04
2019-05-09T02:12:55.029Z,96716.23
2019-05-09T02:15:35.111Z,96718.05
2019-05-09T02:18:13.616Z,96719.77
2019-05-09T02:20:43.929Z,96720.50
2019-05-09T02:23:14.359Z,96720.47
2019-05-09T02:25:44.710Z,96714.72
2019-05-09T02:28:14.827Z,96717.08
2019-05-09T02:30:45.230Z,96713.73
2019-05-09T02:33:15.315Z,96716.06
2019-05-09T02:35:56.400Z,96712.81
2019-05-09T02:38:19.986Z,96711.55
2019-05-09T02:40:50.994Z,96713.89
2019-05-09T02:43:21.125Z,96719.12
2019-05-09T02:46:00.773Z,96717.52
2019-05-09T02:48:30.795Z,96720.28
2019-05-09T02:51:01.205Z,96714.50
2019-05-09T02:53:31.346Z,96720.34
2019-05-09T02:56:01.529Z,96728.25
2019-05-09T02:58:38.730Z,96717.23
2019-05-09T03:01:29.103Z,96714.59
2019-05-09T03:03:58.989Z,96720.30
2019-05-09T03:06:29.498Z,96717.06
2019-05-09T03:08:59.681Z,96713.64
2019-05-09T03:11:29.989Z,96713.89
2019-05-09T03:14:00.213Z,96709.99
2019-05-09T03:16:30.607Z,96705.00
2019-05-09T03:19:00.748Z,96716.77
2019-05-09T03:21:49.185Z,96717.41
2019-05-09T03:24:18.769Z,96715.48
2019-05-09T03:26:53.937Z,96707.25
2019-05-09T03:29:43.246Z,96704.70
2019-05-09T03:32:14.428Z,96705.91
2019-05-09T03:34:44.649Z,96709.85
2019-05-09T03:37:14.768Z,96705.66
2019-05-09T03:39:44.923Z,96712.63
2019-05-09T03:42:18.104Z,96704.09
2019-05-09T03:44:47.790Z,96708.13
2019-05-09T03:47:39.938Z,96692.77
2019-05-09T03:50:18.925Z,96695.13
2019-05-09T03:52:49.160Z,96691.61
2019-05-09T03:55:25.161Z,96687.16
2019-05-09T03:58:01.197Z,96685.78
2019-05-09T04:00:31.443Z,96690.98
2019-05-09T04:03:02.741Z,96680.97
2019-05-09T04:05:33.048Z,96688.00
2019-05-09T04:08:18.907Z,96694.61
2019-05-09T04:10:53.158Z,96693.98
2019-05-09T04:13:31.605Z,96696.18
2019-05-09T04:16:01.863Z,96701.88
2019-05-09T04:18:32.098Z,96701.81
2019-05-09T04:21:02.755Z,96703.90
2019-05-09T04:23:33.512Z,96705.14
2019-05-09T04:26:13.033Z,96705.33
2019-05-09T04:28:43.409Z,96695.90
2019-05-09T04:31:14.799Z,96696.92
2019-05-09T04:33:47.229Z,96691.55
2019-05-09T04:36:18.313Z,96690.69
2019-05-09T04:38:48.543Z,96690.20
2019-05-09T04:41:23.943Z,96696.92
2019-05-09T04:43:50.612Z,96695.27
2019-05-09T04:46:24.288Z,96692.80
2019-05-09T04:48:54.186Z,96690.16
2019-05-09T04:51:25.047Z,96686.29
2019-05-09T04:53:55.258Z,96679.38
2019-05-09T04:56:30.427Z,96685.59
2019-05-09T04:59:00.772Z,96687.58
2019-05-09T05:01:48.610Z,96693.77
2019-05-09T05:04:20.138Z,96679.70
2019-05-09T05:06:50.703Z,96683.89
2019-05-09T05:09:21.587Z,96684.28
2019-05-09T05:11:52.122Z,96681.00
2019-05-09T05:14:22.281Z,96676.52
2019-05-09T05:16:55.291Z,96673.95
2019-05-09T05:19:28.614Z,96679.25
2019-05-09T05:22:04.789Z,96678.16
2019-05-09T05:24:50.834Z,96676.41
2019-05-09T05:27:20.967Z,96667.84
2019-05-09T05:29:51.239Z,96669.70
2019-05-09T05:32:30.231Z,96670.70
2019-05-09T05:35:17.756Z,96671.31
2019-05-09T05:37:47.895Z,96677.64
2019-05-09T05:40:18.257Z,96676.96
2019-05-09T05:42:48.576Z,96668.33
2019-05-09T05:45:19.152Z,96673.44
2019-05-09T05:47:53.978Z,96672.85
2019-05-09T05:50:24.547Z,96673.05
2019-05-09T05:52:57.979Z,96670.25
2019-05-09T05:55:28.670Z,96672.19
2019-05-09T05:57:59.168Z,96675.59
2019-05-09T06:00:29.297Z,96669.51
2019-05-09T06:02:59.532Z,96667.39
2019-05-09T06:05:29.785Z,96663.78
2019-05-09T06:08:00.033Z,96662.99
2019-05-09T06:10:30.267Z,96656.67
2019-05-09T06:13:00.435Z,96661.53
2019-05-09T06:15:30.575Z,96660.73
2019-05-09T06:18:00.918Z,96655.81
2019-05-09T06:20:31.160Z,96659.17
2019-05-09T06:23:01.363Z,96666.62
2019-05-09T06:25:31.525Z,96665.52
2019-05-09T06:28:01.683Z,96668.31
2019-05-09T06:30:32.324Z,96665.49
2019-05-09T06:33:05.163Z,96665.73
2019-05-09T06:35:37.967Z,96670.81
2019-05-09T06:38:08.049Z,96682.65
2019-05-09T06:40:38.416Z,96683.09
2019-05-09T06:43:22.871Z,96679.29
2019-05-09T06:46:11.884Z,96678.17
2019-05-09T06:48:42.240Z,96671.00
2019-05-09T06:51:12.533Z,96664.58
2019-05-09T06:53:42.812Z,96665.98
2019-05-09T06:56:13.316Z,96663.82
2019-05-09T06:58:43.827Z,96669.61
2019-05-09T07:01:33.254Z,96676.73
2019-05-09T07:04:11.934Z,96671.85
2019-05-09T07:06:48.240Z,96655.13
2019-05-09T07:09:34.704Z,96648.92
2019-05-09T07:12:07.673Z,96646.87
2019-05-09T07:14:41.285Z,96650.45
2019-05-09T07:17:08.867Z,96650.36
2019-05-09T07:19:42.934Z,96656.92
2019-05-09T07:22:38.971Z,96653.09
2019-05-09T07:25:27.631Z,96646.72
2019-05-09T07:27:58.685Z,96638.23
2019-05-09T07:30:44.604Z,96634.21
2019-05-09T07:33:20.787Z,96622.48
2019-05-09T07:35:51.442Z,96623.30
2019-05-09T07:38:31.655Z,96614.72
2019-05-09T07:41:03.811Z,96612.94
2019-05-09T07:43:34.059Z,96614.80
2019-05-09T07:46:05.629Z,96607.28
2019-05-09T07:48:38.083Z,96608.72
2019-05-09T07:51:09.497Z,96596.75
2019-05-09T07:53:40.121Z,96600.91
2019-05-09T07:56:10.552Z,96595.45
2019-05-09T07:58:40.685Z,96591.98
2019-05-09T08:01:12.033Z,96588.19
2019-05-09T08:03:42.283Z,96584.44
2019-05-09T08:06:13.262Z,96589.34
2019-05-09T08:08:43.500Z,96598.03
2019-05-09T08:11:13.728Z,96599.67
2019-05-09T08:13:43.909Z,96604.12
2019-05-09T08:16:14.820Z,96606.39
2019-05-09T08:18:45.391Z,96612.61
2019-05-09T08:21:17.853Z,96613.62
2019-05-09T08:23:48.580Z,96627.62
2019-05-09T08:26:19.156Z,96641.05
2019-05-09T08:28:49.920Z,96640.05
2019-05-09T08:31:20.463Z,96650.22
2019-05-09T08:33:50.641Z,96657.08
2019-05-09T08:36:20.848Z,96651.81
2019-05-09T08:38:51.129Z,96656.88
2019-05-09T08:41:21.360Z,96657.78
2019-05-09T08:43:51.807Z,96661.88
2019-05-09T08:46:22.460Z,96669.36
2019-05-09T08:48:52.650Z,96674.55
2019-05-09T08:52:06.279Z,96671.42
2019-05-09T08:54:38.192Z,96673.55
2019-05-09T08:57:08.413Z,96677.66
2019-05-09T08:59:38.575Z,96681.34
2019-05-09T09:02:14.842Z,96683.53
2019-05-09T09:04:40.962Z,96673.85
2019-05-09T09:07:12.361Z,96678.81
2019-05-09T09:09:43.854Z,96681.97
2019-05-09T09:12:25.896Z,96682.63
2019-05-09T09:14:47.893Z,96681.79
2019-05-09T09:17:19.423Z,96680.61
2019-05-09T09:19:50.593Z,96681.17
2019-05-09T09:22:21.055Z,96679.83
2019-05-09T09:24:51.618Z,96675.39
2019-05-09T09:27:22.320Z,96670.45
2019-05-09T09:29:52.839Z,96669.92
2019-05-09T09:32:23.306Z,96656.80
2019-05-09T09:34:53.741Z,96657.91
2019-05-09T09:37:24.944Z,96660.35
2019-05-09T09:39:58.333Z,96649.17
2019-05-09T09:42:29.024Z,96649.40
2019-05-09T09:44:59.874Z,96647.08
2019-05-09T09:47:31.821Z,96644.89
2019-05-09T09:50:02.638Z,96635.28
2019-05-09T09:52:34.521Z,96634.61
2019-05-09T09:55:05.424Z,96632.75
2019-05-09T09:57:37.814Z,96628.85
2019-05-09T10:00:26.724Z,96624.91
2019-05-09T10:02:58.718Z,96624.03
2019-05-09T10:05:29.383Z,96612.73
2019-05-09T10:08:00.196Z,96602.66
2019-05-09T10:10:36.416Z,96601.22
2019-05-09T10:13:10.346Z,96600.31
2019-05-09T10:15:59.974Z,96604.05
2019-05-09T10:18:44.849Z,96591.98
2019-05-09T10:21:19.196Z,96592.38
2019-05-09T10:23:50.670Z,96592.70
2019-05-09T10:26:20.925Z,96595.17
2019-05-09T10:28:51.824Z,96590.91
2019-05-09T10:31:22.153Z,96580.38
2019-05-09T10:33:52.330Z,96584.97
2019-05-09T10:36:22.603Z,96580.95
2019-05-09T10:38:52.954Z,96576.06
2019-05-09T10:41:23.448Z,96571.66
2019-05-09T10:44:12.716Z,96558.24
2019-05-09T10:47:04.788Z,96562.06
2019-05-09T10:49:35.190Z,96558.45
2019-05-09T10:52:05.590Z,96569.86
2019-05-09T10:54:37.365Z,96569.69
2019-05-09T10:57:07.778Z,96569.89
2019-05-09T10:59:38.008Z,96568.39
2019-05-09T11:02:09.518Z,96574.89
2019-05-09T11:04:44.195Z,96574.73
2019-05-09T11:07:13.373Z,96568.58
2019-05-09T11:09:43.774Z,96568.58
2019-05-09T11:12:13.928Z,96564.08
2019-05-09T11:14:44.304Z,96558.38
2019-05-09T11:17:19.318Z,96544.27
2019-05-09T11:19:48.514Z,96560.10
2019-05-09T11:22:18.801Z,96540.53
2019-05-09T11:24:51.144Z,96548.20
2019-05-09T11:27:21.173Z,96557.94
2019-05-09T11:29:51.369Z,96538.06
2019-05-09T11:32:21.802Z,96555.69
2019-05-09T11:34:52.192Z,96550.16
2019-05-09T11:37:22.647Z,96556.89
2019-05-09T11:39:53.969Z,96557.81
2019-05-09T11:42:24.125Z,96568.57
2019-05-09T11:44:54.410Z,96562.92
2019-05-09T11:47:33.614Z,96570.73
2019-05-09T11:49:57.769Z,96581.02
2019-05-09T11:52:28.992Z,96587.55
2019-05-09T11:54:59.814Z,96589.20
2019-05-09T11:57:31.455Z,96596.56
2019-05-09T12:00:03.321Z,96596.78
2019-05-09T12:02:35.452Z,96595.36
2019-05-09T12:05:05.877Z,96595.17
2019-05-09T12:07:37.891Z,96593.47
2019-05-09T12:10:09.067Z,96602.42
2019-05-09T12:12:39.370Z,96614.75
2019-05-09T12:15:10.069Z,96617.03
2019-05-09T12:17:56.602Z,96615.47
2019-05-09T12:20:13.724Z,96612.25
2019-05-09T12:22:44.616Z,96599.35
2019-05-09T12:25:15.134Z,96600.46
2019-05-09T12:27:45.506Z,96598.54
2019-05-09T12:30:18.681Z,96595.50
2019-05-09T12:32:48.391Z,96595.42
2019-05-09T12:35:19.071Z,96586.27
2019-05-09T12:37:49.702Z,96597.41
2019-05-09T12:40:20.285Z,96593.16
2019-05-09T12:42:50.904Z,96588.47
2019-05-09T12:45:21.482Z,96583.53
2019-05-09T12:48:06.446Z,96570.95
2019-05-09T12:50:23.735Z,96565.08
2019-05-09T12:52:54.229Z,96574.71
2019-05-09T12:55:27.567Z,96578.30
2019-05-09T12:57:59.438Z,96573.72
2019-05-09T13:00:30.206Z,96569.78
2019-05-09T13:03:02.555Z,96568.72
2019-05-09T13:05:33.724Z,96568.73
2019-05-09T13:08:04.100Z,96569.80
2019-05-09T13:10:34.861Z,96568.54
2019-05-09T13:13:08.319Z,96568.79
2019-05-09T13:15:44.003Z,96571.23
2019-05-09T13:18:24.611Z,96564.88
2019-05-09T13:20:48.745Z,96576.23
2019-05-09T13:23:18.575Z,96573.50
2019-05-09T13:25:50.418Z,96571.48
2019-05-09T13:28:21.006Z,96578.34
2019-05-09T13:30:51.459Z,96580.75
2019-05-09T13:33:21.732Z,96577.67
2019-05-09T13:35:52.087Z,96594.88
2019-05-09T13:38:22.765Z,96587.91
2019-05-09T13:40:53.936Z,96595.95
2019-05-09T13:43:24.362Z,96605.19
2019-05-09T13:45:54.677Z,96627.36
2019-05-09T13:48:46.786Z,96639.63
2019-05-09T13:50:57.781Z,96636.99
2019-05-09T13:53:28.458Z,96640.80
2019-05-09T13:55:59.126Z,96658.11
2019-05-09T13:58:29.340Z,96657.62
2019-05-09T14:01:02.684Z,96675.90
2019-05-09T14:03:33.617Z,96666.51
2019-05-09T14:06:04.228Z,96671.75
2019-05-09T14:08:34.684Z,96664.91
2019-05-09T14:11:08.093Z,96660.73
2019-05-09T14:13:38.550Z,96669.05
2019-05-09T14:16:19.265Z,96661.36
2019-05-09T14:18:41.939Z,96658.77
2019-05-09T14:21:13.754Z,96669.93
2019-05-09T14:23:51.050Z,96654.06
2019-05-09T14:26:18.022Z,96677.37
2019-05-09T14:28:49.139Z,96675.12
2019-05-09T14:31:19.669Z,96676.29
2019-05-09T14:33:49.889Z,96679.86
2019-05-09T14:36:20.087Z,96679.13
2019-05-09T14:38:50.210Z,96680.30
2019-05-09T14:41:20.536Z,96691.80
2019-05-09T14:43:51.291Z,96691.40
2019-05-09T14:46:21.885Z,96699.83
2019-05-09T14:48:52.505Z,96700.61
2019-05-09T14:51:22.848Z,96693.05
2019-05-09T14:53:53.076Z,96683.29
2019-05-09T14:56:23.317Z,96688.38
2019-05-09T14:58:53.712Z,96700.96
2019-05-09T15:01:28.420Z,96702.07
2019-05-09T15:03:58.558Z,96704.29
2019-05-09T15:06:29.167Z,96721.81
2019-05-09T15:08:59.427Z,96718.36
2019-05-09T15:11:29.845Z,96716.16
2019-05-09T15:14:00.344Z,96732.62
2019-05-09T15:16:30.748Z,96734.92
2019-05-09T15:19:01.343Z,96732.69
2019-05-09T15:21:31.484Z,96731.98
2019-05-09T15:24:02.336Z,96736.77
2019-05-09T15:26:32.772Z,96732.00
2019-05-09T15:29:03.143Z,96747.44
2019-05-09T15:31:33.689Z,96737.81
2019-05-09T15:34:05.119Z,96745.09
2019-05-09T15:36:37.766Z,96745.41
2019-05-09T15:39:08.348Z,96744.48
2019-05-09T15:41:38.805Z,96749.02
2019-05-09T15:44:09.310Z,96755.12
2019-05-09T15:46:45.736Z,96756.86
2019-05-09T15:49:18.208Z,96757.76
2019-05-09T15:51:48.195Z,96755.84
2019-05-09T15:54:18.605Z,96768.56
2019-05-09T15:56:48.964Z,96768.56
2019-05-09T15:59:19.763Z,96767.94
2019-05-09T16:01:50.131Z,96768.29
2019-05-09T16:04:20.500Z,96767.93
2019-05-09T16:06:52.070Z,96777.60
2019-05-09T16:09:22.866Z,96773.81
2019-05-09T16:11:53.066Z,96773.75
2019-05-09T16:14:23.604Z,96780.95
2019-05-09T16:16:54.084Z,96787.45
2019-05-09T16:19:24.467Z,96796.11
2019-05-09T16:21:54.819Z,96793.32
2019-05-09T16:24:27.850Z,96800.19
2019-05-09T16:26:57.905Z,96815.97
2019-05-09T16:29:31.952Z,96806.89
2019-05-09T16:32:00.075Z,96806.41
2019-05-09T16:34:31.059Z,96816.37
2019-05-09T16:37:01.634Z,96811.89
2019-05-09T16:39:32.001Z,96813.25
2019-05-09T16:42:02.261Z,96819.31
2019-05-09T16:44:32.817Z,96816.39
2019-05-09T16:47:03.241Z,96826.59
2019-05-09T16:49:33.599Z,96820.36
2019-05-09T16:52:04.213Z,96825.91
2019-05-09T16:54:43.333Z,96820.63
2019-05-09T16:57:13.697Z,96826.27
2019-05-09T16:59:44.040Z,96829.13
2019-05-09T17:02:21.433Z,96835.00
2019-05-09T17:04:46.506Z,96829.11
2019-05-09T17:07:18.044Z,96847.83
2019-05-09T17:09:48.720Z,96843.83
2019-05-09T17:12:19.133Z,96847.83
2019-05-09T17:14:49.433Z,96853.28
2019-05-09T17:17:19.631Z,96863.42
2019-05-09T17:19:50.118Z,96868.91
2019-05-09T17:22:39.530Z,96866.94
2019-05-09T17:25:10.125Z,96873.04
2019-05-09T17:27:41.563Z,96876.02
2019-05-09T17:30:11.993Z,96885.14
2019-05-09T17:32:42.256Z,96889.35
2019-05-09T17:35:12.910Z,96894.91
2019-05-09T17:37:43.235Z,96899.47
2019-05-09T17:40:16.121Z,96909.81
2019-05-09T17:42:45.692Z,96916.28
2019-05-09T17:45:16.480Z,96922.59
2019-05-09T17:47:48.546Z,96917.75
2019-05-09T17:50:19.506Z,96917.58
2019-05-09T17:52:49.970Z,96919.59
2019-05-09T17:55:20.570Z,96920.67
2019-05-09T17:57:50.808Z,96919.58
2019-05-09T18:00:22.188Z,96920.80
2019-05-09T18:02:52.895Z,96924.42
2019-05-09T18:05:23.686Z,96926.03
2019-05-09T18:07:54.194Z,96921.53
2019-05-09T18:10:24.819Z,96918.14
2019-05-09T18:12:55.159Z,96931.95
2019-05-09T18:15:28.101Z,96928.32
2019-05-09T18:17:58.616Z,96933.96
2019-05-09T18:20:29.375Z,96936.25
2019-05-09T18:23:03.039Z,96935.80
2019-05-09T18:25:31.839Z,96938.51
2019-05-09T18:28:02.669Z,96941.43
2019-05-09T18:30:33.236Z,96947.41
2019-05-09T18:33:10.951Z,96958.36
2019-05-09T18:35:41.644Z,96967.64
2019-05-09T18:38:17.919Z,96965.14
2019-05-09T18:40:48.368Z,96983.10
2019-05-09T18:43:19.006Z,96987.97
2019-05-09T18:45:49.900Z,96990.99
2019-05-09T18:48:20.176Z,96994.95
2019-05-09T18:50:50.641Z,96999.37
2019-05-09T18:53:21.211Z,97000.27
2019-05-09T18:55:51.751Z,97006.00
2019-05-09T18:58:22.056Z,97010.06
2019-05-09T19:00:53.034Z,97007.48
2019-05-09T19:03:23.548Z,97017.29
2019-05-09T19:05:56.456Z,97017.29
2019-05-09T19:08:27.075Z,97026.87
2019-05-09T19:10:57.920Z,97025.16
2019-05-09T19:13:28.318Z,97033.73
2019-05-09T19:16:14.876Z,97046.91
2019-05-09T19:19:13.464Z,97037.41
2019-05-09T19:21:56.039Z,97050.18
2019-05-09T19:24:26.853Z,97054.32
2019-05-09T19:26:57.335Z,97057.84
2019-05-09T19:29:27.882Z,97066.22
2019-05-09T19:31:58.150Z,97066.08
2019-05-09T19:34:28.528Z,97071.16
2019-05-09T19:36:59.266Z,97078.27
2019-05-09T19:39:29.649Z,97081.34
2019-05-09T19:42:00.226Z,97090.61
2019-05-09T19:44:30.882Z,97083.81
2019-05-09T19:47:02.064Z,97096.92
2019-05-09T19:49:33.682Z,97100.38
2019-05-09T19:52:04.303Z,97102.07
2019-05-09T19:54:34.802Z,97101.63
2019-05-09T19:57:05.711Z,97107.58
2019-05-09T19:59:36.014Z,97111.41
2019-05-09T20:02:06.877Z,97114.23
2019-05-09T20:04:37.396Z,97113.57
2019-05-09T20:07:07.831Z,97122.83
2019-05-09T20:09:44.792Z,97120.59
2019-05-09T20:12:30.744Z,97120.81
2019-05-09T20:15:01.362Z,97120.64
2019-05-09T20:17:32.517Z,97127.24
2019-05-09T20:20:03.071Z,97127.24
2019-05-09T20:22:33.975Z,97129.44
2019-05-09T20:25:04.980Z,97141.87
2019-05-09T20:27:35.441Z,97134.77
2019-05-09T20:30:05.756Z,97142.84
2019-05-09T20:32:36.085Z,97143.18
2019-05-09T20:35:07.106Z,97145.09
2019-05-09T20:37:38.787Z,97146.53
2019-05-09T20:40:10.008Z,97150.83
2019-05-09T20:42:40.676Z,97148.43
2019-05-09T20:45:12.668Z,97154.77
2019-05-09T20:47:43.470Z,97166.06
2019-05-09T20:50:14.756Z,97173.63
2019-05-09T20:52:45.399Z,97169.44
2019-05-09T20:55:16.068Z,97173.03
2019-05-09T20:57:46.773Z,97171.89
2019-05-09T21:00:17.385Z,97174.69
2019-05-09T21:02:47.960Z,97179.24
2019-05-09T21:05:18.788Z,97170.44
2019-05-09T21:07:49.299Z,97172.73
2019-05-09T21:10:21.095Z,97186.42
2019-05-09T21:12:51.688Z,97187.55
2019-05-09T21:15:22.230Z,97186.28
2019-05-09T21:17:53.110Z,97193.44
2019-05-09T21:20:23.766Z,97189.63
2019-05-09T21:22:54.700Z,97197.98
2019-05-09T21:25:25.848Z,97186.06
2019-05-09T21:27:56.306Z,97197.05
2019-05-09T21:30:26.962Z,97197.90
2019-05-09T21:32:57.435Z,97192.91
2019-05-09T21:35:28.840Z,97201.11
2019-05-09T21:37:59.310Z,97207.76
2019-05-09T21:40:29.743Z,97207.95
2019-05-09T21:43:00.032Z,97207.86
2019-05-09T21:45:30.446Z,97213.93
2019-05-09T21:48:00.778Z,97208.99
2019-05-09T21:50:31.411Z,97217.75
2019-05-09T21:53:01.905Z,97223.72
2019-05-09T21:55:32.132Z,97222.92
2019-05-09T21:58:02.781Z,97226.80
2019-05-09T22:00:35.843Z,97223.00
2019-05-09T22:03:06.933Z,97230.31
2019-05-09T22:05:38.475Z,97237.33
2019-05-09T22:08:08.747Z,97237.48
2019-05-09T22:10:38.952Z,97242.16
2019-05-09T22:13:09.225Z,97253.16
2019-05-09T22:15:40.410Z,97251.00
2019-05-09T22:18:10.579Z,97256.66
2019-05-09T22:20:40.921Z,97262.36
2019-05-09T22:23:11.207Z,97268.33
2019-05-09T22:25:41.908Z,97279.39
2019-05-09T22:28:12.217Z,97281.30
2019-05-09T22:30:42.576Z,97279.87
2019-05-09T22:33:12.744Z,97281.30
2019-05-09T22:35:43.008Z,97287.44
2019-05-09T22:38:13.310Z,97294.41
2019-05-09T22:40:43.937Z,97288.53
2019-05-09T22:43:14.170Z,97287.66
2019-05-09T22:45:46.245Z,97289.34
2019-05-09T22:48:16.747Z,97283.27
2019-05-09T22:50:47.111Z,97285.34
2019-05-09T22:53:17.271Z,97290.15
2019-05-09T22:55:47.463Z,97284.02
2019-05-09T22:58:17.724Z,97280.19
2019-05-09T23:00:47.987Z,97288.19
2019-05-09T23:03:18.166Z,97283.58
2019-05-09T23:05:48.484Z,97283.54
2019-05-09T23:08:18.918Z,97287.59
2019-05-09T23:10:52.848Z,97292.73
2019-05-09T23:13:21.415Z,97295.22
2019-05-09T23:15:51.685Z,97290.69
2019-05-09T23:18:21.982Z,97288.34
2019-05-09T23:20:57.364Z,97284.39
2019-05-09T23:23:35.679Z,97284.20
2019-05-09T23:26:06.197Z,97290.73
2019-05-09T23:28:36.426Z,97295.80
2019-05-09T23:31:10.299Z,97300.52
2019-05-09T23:33:41.593Z,97299.15
2019-05-09T23:36:11.792Z,97294.00
2019-05-09T23:38:59.751Z,97298.28
2019-05-09T23:41:29.978Z,97299.05
2019-05-09T23:44:00.161Z,97304.23
2019-05-09T23:46:30.513Z,97294.78
2019-05-09T23:49:01.048Z,97299.31
2019-05-09T23:51:47.809Z,97287.55
2019-05-09T23:54:45.939Z,97287.68
2019-05-09T23:57:26.739Z,97289.09
